createdAt,value
2017-03-17T00:00:05.962Z,0
2017-03-17T00:00:46.519Z,0
2017-03-17T00:01:27.026Z,0
2017-03-17T00:02:07.568Z,0
2017-03-17T00:02:48.071Z,0
2017-03-17T00:03:28.613Z,0
2017-03-17T00:04:09.149Z,0
2017-03-17T00:04:49.671Z,0
2017-03-17T00:05:30.176Z,0
2017-03-17T00:06:10.670Z,0
2017-03-17T00:06:51.175Z,0
2017-03-17T00:07:31.692Z,0
2017-03-17T00:08:12.193Z,0
2017-03-17T00:08:52.681Z,0
2017-03-17T00:09:33.199Z,0
2017-03-17T00:10:13.733Z,0
2017-03-17T00:10:54.214Z,0
2017-03-17T00:11:34.726Z,0
2017-03-17T00:12:15.221Z,0
2017-03-17T00:12:55.756Z,0
2017-03-17T00:13:36.267Z,0
2017-03-17T00:14:16.756Z,0
2017-03-17T00:16:31.038Z,0
2017-03-17T00:17:11.520Z,0
2017-03-17T00:17:51.994Z,0
2017-03-17T00:18:32.508Z,0
2017-03-17T00:19:12.986Z,0
2017-03-17T00:19:53.472Z,0
2017-03-17T00:20:33.969Z,0
2017-03-17T00:21:14.436Z,0
2017-03-17T00:21:54.950Z,0
2017-03-17T00:22:35.461Z,0
2017-03-17T00:23:15.952Z,0
2017-03-17T00:23:56.377Z,0
2017-03-17T00:24:36.871Z,0
2017-03-17T00:25:17.343Z,0
2017-03-17T00:25:57.856Z,0
2017-03-17T00:26:38.333Z,0
2017-03-17T00:27:18.798Z,0
2017-03-17T00:27:59.333Z,0
2017-03-17T00:28:39.801Z,0
2017-03-17T00:29:20.273Z,0
2017-03-17T00:30:00.802Z,0
2017-03-17T00:30:41.294Z,0
2017-03-17T00:31:21.764Z,0
2017-03-17T00:32:02.312Z,0
2017-03-17T00:32:42.757Z,0
2017-03-17T00:33:23.218Z,0
2017-03-17T00:34:03.715Z,0
2017-03-17T00:34:44.206Z,0
2017-03-17T00:35:24.709Z,0
2017-03-17T00:36:05.208Z,0
2017-03-17T00:36:45.714Z,0
2017-03-17T00:37:26.207Z,0
2017-03-17T00:38:06.710Z,0
2017-03-17T00:38:47.203Z,0
2017-03-17T00:39:27.662Z,0
2017-03-17T00:40:08.185Z,0
2017-03-17T00:40:48.716Z,0
2017-03-17T00:41:29.145Z,0
2017-03-17T00:42:09.652Z,0
2017-03-17T00:42:50.188Z,0
2017-03-17T00:43:30.668Z,0
2017-03-17T00:44:11.203Z,0
2017-03-17T00:44:51.716Z,0
2017-03-17T00:45:32.236Z,0
2017-03-17T00:46:12.738Z,0
2017-03-17T00:46:53.220Z,0
2017-03-17T00:47:33.776Z,0
2017-03-17T00:48:14.212Z,0
2017-03-17T00:48:54.739Z,0
2017-03-17T00:49:35.243Z,0
2017-03-17T00:50:15.749Z,0
2017-03-17T00:50:56.277Z,0
2017-03-17T00:51:36.769Z,0
2017-03-17T00:52:17.256Z,0
2017-03-17T00:52:57.759Z,0
2017-03-17T00:53:38.279Z,0
2017-03-17T00:54:18.735Z,0
2017-03-17T00:54:59.254Z,0
2017-03-17T00:55:39.765Z,0
2017-03-17T00:56:20.234Z,0
2017-03-17T00:57:00.716Z,0
2017-03-17T00:57:41.201Z,0
2017-03-17T00:58:21.673Z,0
2017-03-17T00:59:02.187Z,0
2017-03-17T00:59:42.678Z,0
2017-03-17T01:00:23.210Z,0
2017-03-17T01:01:03.651Z,0
2017-03-17T01:01:44.133Z,0
2017-03-17T01:02:24.649Z,0
2017-03-17T01:03:05.131Z,0
2017-03-17T01:03:45.588Z,0
2017-03-17T01:04:26.098Z,0
2017-03-17T01:05:06.601Z,0
2017-03-17T01:05:47.118Z,0
2017-03-17T01:06:27.591Z,0
2017-03-17T01:07:08.078Z,0
2017-03-17T01:07:48.542Z,0
2017-03-17T01:08:29.038Z,0
2017-03-17T01:09:09.579Z,0
2017-03-17T01:09:50.079Z,0
2017-03-17T01:10:30.593Z,0
2017-03-17T01:11:11.037Z,0
2017-03-17T01:11:51.531Z,0
2017-03-17T01:12:32.011Z,0
2017-03-17T01:13:12.524Z,0
2017-03-17T01:13:53.069Z,0
2017-03-17T01:14:33.541Z,0
2017-03-17T01:15:13.998Z,0
2017-03-17T01:15:54.507Z,0
2017-03-17T01:16:35.021Z,0
2017-03-17T01:17:15.509Z,0
2017-03-17T01:17:55.982Z,0
2017-03-17T01:18:36.473Z,0
2017-03-17T01:19:17.001Z,0
2017-03-17T01:19:57.464Z,0
2017-03-17T01:20:38.000Z,0
2017-03-17T01:21:18.481Z,0
2017-03-17T01:21:58.978Z,0
2017-03-17T01:22:39.490Z,0
2017-03-17T01:23:19.990Z,0
2017-03-17T01:24:00.465Z,0
2017-03-17T01:24:40.979Z,0
2017-03-17T01:25:21.470Z,0
2017-03-17T01:26:01.982Z,0
2017-03-17T01:26:42.485Z,0
2017-03-17T01:27:22.983Z,0
2017-03-17T01:28:03.451Z,0
2017-03-17T01:28:43.907Z,0
2017-03-17T01:29:24.424Z,0
2017-03-17T01:30:04.933Z,0
2017-03-17T01:30:45.416Z,0
2017-03-17T01:31:25.904Z,0
2017-03-17T01:32:06.383Z,0
2017-03-17T01:32:46.895Z,0
2017-03-17T01:33:27.401Z,0
2017-03-17T01:34:07.857Z,0
2017-03-17T01:34:48.372Z,0
2017-03-17T01:35:28.865Z,0
2017-03-17T01:36:09.339Z,0
2017-03-17T01:36:49.832Z,0
2017-03-17T01:37:30.321Z,0
2017-03-17T01:38:10.857Z,0
2017-03-17T01:38:51.331Z,0
2017-03-17T01:39:31.843Z,0
2017-03-17T01:40:12.390Z,0
2017-03-17T01:40:52.820Z,0
2017-03-17T01:41:33.376Z,0
2017-03-17T01:42:13.805Z,0
2017-03-17T01:42:54.307Z,0
2017-03-17T01:43:34.778Z,0
2017-03-17T01:44:15.266Z,0
2017-03-17T01:44:55.752Z,0
2017-03-17T01:45:36.265Z,0
2017-03-17T01:46:16.749Z,0
2017-03-17T01:46:57.241Z,0
2017-03-17T01:47:37.757Z,0
2017-03-17T01:48:18.259Z,0
2017-03-17T01:48:58.741Z,0
2017-03-17T01:49:39.253Z,0
2017-03-17T01:50:19.741Z,0
2017-03-17T01:51:00.261Z,0
2017-03-17T01:51:40.730Z,0
2017-03-17T01:52:21.210Z,0
2017-03-17T01:53:01.769Z,0
2017-03-17T01:53:42.234Z,0
2017-03-17T01:54:22.795Z,0
2017-03-17T01:55:03.255Z,0
2017-03-17T01:55:43.712Z,0
2017-03-17T01:56:24.187Z,0
2017-03-17T01:57:04.674Z,0
2017-03-17T01:57:45.165Z,0
2017-03-17T01:58:25.632Z,0
2017-03-17T01:59:06.152Z,0
2017-03-17T01:59:46.613Z,0
2017-03-17T02:00:27.109Z,0
2017-03-17T02:01:07.625Z,0
2017-03-17T02:01:48.052Z,0
2017-03-17T02:02:28.602Z,0
2017-03-17T02:03:09.106Z,0
2017-03-17T02:03:49.643Z,0
2017-03-17T02:04:30.132Z,0
2017-03-17T02:05:10.600Z,0
2017-03-17T02:05:51.089Z,0
2017-03-17T02:06:31.555Z,0
2017-03-17T02:07:12.067Z,0
2017-03-17T02:07:52.558Z,0
2017-03-17T02:08:33.057Z,0
2017-03-17T02:09:13.528Z,0
2017-03-17T02:09:54.028Z,0
2017-03-17T02:10:34.522Z,0
2017-03-17T02:11:14.998Z,0
2017-03-17T02:11:55.474Z,0
2017-03-17T02:12:35.949Z,0
2017-03-17T02:13:16.444Z,0
2017-03-17T02:13:56.904Z,0
2017-03-17T02:14:37.370Z,0
2017-03-17T02:15:17.837Z,0
2017-03-17T02:15:58.309Z,0
2017-03-17T02:16:38.870Z,0
2017-03-17T02:17:19.295Z,0
2017-03-17T02:17:59.807Z,0
2017-03-17T02:18:40.289Z,0
2017-03-17T02:19:20.749Z,0
2017-03-17T02:20:01.252Z,0
2017-03-17T02:20:41.760Z,0
2017-03-17T02:21:22.296Z,0
2017-03-17T02:22:02.794Z,0
2017-03-17T02:22:43.283Z,0
2017-03-17T02:23:23.761Z,0
2017-03-17T02:24:04.248Z,0
2017-03-17T02:24:44.763Z,0
2017-03-17T02:25:25.284Z,0
2017-03-17T02:26:05.786Z,0
2017-03-17T02:26:46.293Z,0
2017-03-17T02:27:26.833Z,0
2017-03-17T02:28:07.296Z,0
2017-03-17T02:28:47.797Z,0
2017-03-17T02:29:28.322Z,0
2017-03-17T02:30:08.797Z,0
2017-03-17T02:30:49.299Z,0
2017-03-17T02:31:29.785Z,0
2017-03-17T02:32:10.330Z,0
2017-03-17T02:32:50.778Z,0
2017-03-17T02:33:31.257Z,0
2017-03-17T02:34:11.741Z,0
2017-03-17T02:34:52.257Z,0
2017-03-17T02:35:32.710Z,0
2017-03-17T02:36:13.234Z,0
2017-03-17T02:36:53.749Z,0
2017-03-17T02:37:34.198Z,0
2017-03-17T02:38:14.695Z,0
2017-03-17T02:38:55.190Z,0
2017-03-17T02:39:35.679Z,0
2017-03-17T02:40:16.236Z,0
2017-03-17T02:40:56.669Z,0
2017-03-17T02:41:37.152Z,0
2017-03-17T02:42:17.688Z,0
2017-03-17T02:42:58.183Z,0
2017-03-17T02:43:38.652Z,0
2017-03-17T02:44:19.142Z,0
2017-03-17T02:44:59.632Z,0
2017-03-17T02:45:40.148Z,0
2017-03-17T02:46:20.634Z,0
2017-03-17T02:47:01.134Z,0
2017-03-17T02:47:41.615Z,0
2017-03-17T02:48:22.129Z,0
2017-03-17T02:49:02.636Z,0
2017-03-17T02:49:43.135Z,0
2017-03-17T02:50:23.575Z,0
2017-03-17T02:51:04.112Z,0
2017-03-17T02:51:44.601Z,0
2017-03-17T02:52:25.105Z,0
2017-03-17T02:53:05.584Z,0
2017-03-17T02:53:46.087Z,0
2017-03-17T02:54:26.621Z,0
2017-03-17T02:55:07.095Z,0
2017-03-17T02:55:47.575Z,0
2017-03-17T02:56:28.065Z,0
2017-03-17T02:57:08.565Z,0
2017-03-17T02:57:49.049Z,0
2017-03-17T02:58:29.569Z,0
2017-03-17T02:59:10.015Z,0
2017-03-17T02:59:50.627Z,0
2017-03-17T03:00:31.020Z,0
2017-03-17T03:01:11.534Z,0
2017-03-17T03:01:52.123Z,0
2017-03-17T03:02:32.500Z,0
2017-03-17T03:03:12.968Z,0
2017-03-17T03:03:53.470Z,0
2017-03-17T03:04:33.980Z,0
2017-03-17T03:05:14.423Z,0
2017-03-17T03:05:54.956Z,0
2017-03-17T03:06:35.497Z,0
2017-03-17T03:07:15.951Z,0
2017-03-17T03:07:56.406Z,0
2017-03-17T03:08:36.901Z,0
2017-03-17T03:09:17.420Z,0
2017-03-17T03:09:57.920Z,0
2017-03-17T03:10:38.378Z,0
2017-03-17T03:11:18.842Z,0
2017-03-17T03:11:59.378Z,0
2017-03-17T03:12:39.849Z,0
2017-03-17T03:13:20.314Z,0
2017-03-17T03:14:00.808Z,0
2017-03-17T03:14:41.318Z,0
2017-03-17T03:15:21.775Z,0
2017-03-17T03:16:02.260Z,0
2017-03-17T03:16:42.780Z,0
2017-03-17T03:17:23.291Z,0
2017-03-17T03:18:03.743Z,0
2017-03-17T03:18:44.226Z,0
2017-03-17T03:19:24.743Z,0
2017-03-17T03:20:05.226Z,0
2017-03-17T03:20:45.704Z,0
2017-03-17T03:21:26.228Z,0
2017-03-17T03:22:06.682Z,0
2017-03-17T03:22:47.211Z,0
2017-03-17T03:23:27.673Z,0
2017-03-17T03:24:08.170Z,0
2017-03-17T03:24:48.676Z,0
2017-03-17T03:25:29.159Z,0
2017-03-17T03:26:09.724Z,0
2017-03-17T03:26:50.206Z,0
2017-03-17T03:27:30.748Z,0
2017-03-17T03:28:11.156Z,0
2017-03-17T03:28:51.630Z,0
2017-03-17T03:29:32.164Z,0
2017-03-17T03:30:12.617Z,0
2017-03-17T03:30:53.123Z,0
2017-03-17T03:31:33.617Z,0
2017-03-17T03:32:14.084Z,0
2017-03-17T03:32:54.524Z,0
2017-03-17T03:33:35.080Z,0
2017-03-17T03:34:15.542Z,0
2017-03-17T03:34:56.057Z,0
2017-03-17T03:35:36.503Z,0
2017-03-17T03:36:16.993Z,0
2017-03-17T03:36:57.464Z,0
2017-03-17T03:37:37.952Z,0
2017-03-17T03:38:18.471Z,0
2017-03-17T03:38:58.910Z,0
2017-03-17T03:39:39.453Z,0
2017-03-17T03:40:19.914Z,0
2017-03-17T03:41:00.402Z,0
2017-03-17T03:41:40.909Z,0
2017-03-17T03:42:21.430Z,0
2017-03-17T03:43:01.943Z,0
2017-03-17T03:43:42.412Z,0
2017-03-17T03:44:22.915Z,0
2017-03-17T03:45:03.417Z,0
2017-03-17T03:45:43.899Z,0
2017-03-17T03:46:24.394Z,0
2017-03-17T03:47:04.843Z,0
2017-03-17T03:47:45.403Z,0
2017-03-17T03:48:25.844Z,0
2017-03-17T03:49:06.349Z,0
2017-03-17T03:49:46.882Z,0
2017-03-17T03:50:27.419Z,0
2017-03-17T03:51:07.881Z,0
2017-03-17T03:51:48.407Z,0
2017-03-17T03:52:28.843Z,0
2017-03-17T03:53:09.421Z,0
2017-03-17T03:53:49.889Z,0
2017-03-17T03:54:30.365Z,0
2017-03-17T03:55:10.836Z,0
2017-03-17T03:55:51.342Z,0
2017-03-17T03:56:31.785Z,0
2017-03-17T03:57:12.302Z,0
2017-03-17T03:57:52.771Z,0
2017-03-17T03:58:33.286Z,0
2017-03-17T03:59:13.745Z,0
2017-03-17T03:59:54.269Z,0
2017-03-17T04:00:34.708Z,0
2017-03-17T04:01:15.206Z,0
2017-03-17T04:01:55.708Z,0
2017-03-17T04:02:36.176Z,0
2017-03-17T04:03:16.698Z,0
2017-03-17T04:03:57.146Z,0
2017-03-17T04:04:37.625Z,0
2017-03-17T04:05:18.146Z,0
2017-03-17T04:05:58.670Z,0
2017-03-17T04:06:39.108Z,0
2017-03-17T04:07:19.659Z,0
2017-03-17T04:08:00.125Z,0
2017-03-17T04:08:40.680Z,0
2017-03-17T04:09:21.136Z,0
2017-03-17T04:10:01.612Z,0
2017-03-17T04:10:42.150Z,0
2017-03-17T04:11:22.603Z,0
2017-03-17T04:12:03.137Z,0
2017-03-17T04:12:43.636Z,0
2017-03-17T04:13:24.108Z,0
2017-03-17T04:14:04.638Z,0
2017-03-17T04:14:45.084Z,0
2017-03-17T04:15:25.576Z,0
2017-03-17T04:16:06.086Z,0
2017-03-17T04:16:46.554Z,0
2017-03-17T04:17:27.066Z,0
2017-03-17T04:18:07.586Z,0
2017-03-17T04:18:48.032Z,0
2017-03-17T04:19:28.550Z,0
2017-03-17T04:20:09.050Z,0
2017-03-17T04:20:49.550Z,0
2017-03-17T04:21:30.040Z,0
2017-03-17T04:22:10.518Z,0
2017-03-17T04:22:51.030Z,0
2017-03-17T04:23:31.491Z,0
2017-03-17T04:24:12.011Z,0
2017-03-17T04:24:52.508Z,0
2017-03-17T04:25:32.988Z,0
2017-03-17T04:26:13.511Z,0
2017-03-17T04:26:53.961Z,0
2017-03-17T04:27:34.487Z,0
2017-03-17T04:28:14.979Z,0
2017-03-17T04:28:55.491Z,0
2017-03-17T04:29:35.931Z,0
2017-03-17T04:30:16.446Z,0
2017-03-17T04:30:56.942Z,0
2017-03-17T04:31:37.401Z,0
2017-03-17T04:32:17.936Z,0
2017-03-17T04:32:58.385Z,0
2017-03-17T04:33:38.862Z,0
2017-03-17T04:34:19.398Z,0
2017-03-17T04:34:59.872Z,0
2017-03-17T04:35:40.403Z,0
2017-03-17T04:36:20.857Z,0
2017-03-17T04:37:01.380Z,0
2017-03-17T04:37:41.904Z,0
2017-03-17T04:38:22.386Z,0
2017-03-17T04:39:02.910Z,0
2017-03-17T04:39:43.401Z,0
2017-03-17T04:40:23.948Z,0
2017-03-17T04:41:04.419Z,0
2017-03-17T04:41:44.915Z,0
2017-03-17T04:42:25.362Z,0
2017-03-17T04:43:05.883Z,0
2017-03-17T04:43:46.360Z,0
2017-03-17T04:44:26.873Z,0
2017-03-17T04:45:07.328Z,0
2017-03-17T04:45:47.888Z,0
2017-03-17T04:46:28.371Z,0
2017-03-17T04:47:08.990Z,0
2017-03-17T04:47:49.492Z,0
2017-03-17T04:48:30.009Z,0
2017-03-17T04:49:10.521Z,0
2017-03-17T04:49:50.990Z,0
2017-03-17T04:50:31.512Z,0
2017-03-17T04:51:12.014Z,0
2017-03-17T04:51:52.536Z,0
2017-03-17T04:52:33.023Z,0
2017-03-17T04:53:13.537Z,0
2017-03-17T04:53:54.011Z,0
2017-03-17T04:54:34.481Z,0
2017-03-17T04:55:14.988Z,0
2017-03-17T04:55:55.514Z,0
2017-03-17T04:56:36.016Z,0
2017-03-17T04:57:16.540Z,0
2017-03-17T04:57:57.042Z,0
2017-03-17T04:58:37.515Z,0
2017-03-17T04:59:17.995Z,0
2017-03-17T04:59:58.517Z,0
2017-03-17T05:00:38.973Z,0
2017-03-17T05:01:19.489Z,0
2017-03-17T05:01:59.989Z,0
2017-03-17T05:02:40.500Z,0
2017-03-17T05:03:20.972Z,0
2017-03-17T05:04:01.482Z,0
2017-03-17T05:04:41.977Z,0
2017-03-17T05:05:22.474Z,0
2017-03-17T05:06:02.969Z,0
2017-03-17T05:06:43.474Z,0
2017-03-17T05:07:23.968Z,0
2017-03-17T05:08:04.489Z,0
2017-03-17T05:08:44.956Z,0
2017-03-17T05:09:25.486Z,0
2017-03-17T05:10:05.974Z,0
2017-03-17T05:10:46.430Z,0
2017-03-17T05:11:26.947Z,0
2017-03-17T05:12:07.424Z,0
2017-03-17T05:12:47.955Z,0
2017-03-17T05:13:28.454Z,0
2017-03-17T05:14:08.950Z,0
2017-03-17T05:14:49.459Z,0
2017-03-17T05:15:30.003Z,0
2017-03-17T05:16:10.431Z,0
2017-03-17T05:16:50.946Z,0
2017-03-17T05:17:31.487Z,0
2017-03-17T05:18:11.979Z,0
2017-03-17T05:18:52.475Z,0
2017-03-17T05:19:32.974Z,0
2017-03-17T05:20:13.459Z,0
2017-03-17T05:20:53.981Z,0
2017-03-17T05:21:34.453Z,0
2017-03-17T05:22:14.945Z,0
2017-03-17T05:22:55.424Z,0
2017-03-17T05:23:35.932Z,0
2017-03-17T05:24:16.429Z,0
2017-03-17T05:24:56.890Z,0
2017-03-17T05:25:37.392Z,0
2017-03-17T05:26:17.869Z,0
2017-03-17T05:26:58.360Z,0
2017-03-17T05:27:38.872Z,0
2017-03-17T05:28:19.372Z,0
2017-03-17T05:28:59.867Z,0
2017-03-17T05:29:40.398Z,0
2017-03-17T05:30:20.878Z,0
2017-03-17T05:31:01.406Z,0
2017-03-17T05:31:41.855Z,0
2017-03-17T05:32:22.397Z,0
2017-03-17T05:33:02.851Z,5
2017-03-17T05:33:43.329Z,5
2017-03-17T05:34:23.833Z,5
2017-03-17T05:35:04.296Z,5
2017-03-17T05:35:44.790Z,5
2017-03-17T05:36:25.307Z,5
2017-03-17T05:37:05.780Z,5
2017-03-17T05:37:46.307Z,5
2017-03-17T05:38:26.798Z,5
2017-03-17T05:39:07.293Z,5
2017-03-17T05:39:47.783Z,10
2017-03-17T05:40:28.277Z,10
2017-03-17T05:41:08.792Z,10
2017-03-17T05:41:49.330Z,10
2017-03-17T05:42:29.850Z,10
2017-03-17T05:43:10.349Z,10
2017-03-17T05:43:50.852Z,10
2017-03-17T05:44:31.403Z,15
2017-03-17T05:45:11.884Z,15
2017-03-17T05:45:52.406Z,15
2017-03-17T05:46:32.884Z,15
2017-03-17T05:47:13.391Z,15
2017-03-17T05:47:53.884Z,15
2017-03-17T05:48:34.410Z,20
2017-03-17T05:49:14.890Z,20
2017-03-17T05:49:55.430Z,20
2017-03-17T05:50:35.894Z,20
2017-03-17T05:51:16.403Z,20
2017-03-17T05:51:56.872Z,20
2017-03-17T05:52:37.358Z,25
2017-03-17T05:53:17.906Z,25
2017-03-17T05:53:58.358Z,25
2017-03-17T05:54:38.824Z,25
2017-03-17T05:55:19.329Z,25
2017-03-17T05:55:59.835Z,25
2017-03-17T05:56:40.384Z,30
2017-03-17T05:57:20.871Z,30
2017-03-17T05:58:01.410Z,30
2017-03-17T05:58:41.892Z,30
2017-03-17T05:59:22.346Z,30
2017-03-17T06:00:02.843Z,35
2017-03-17T06:00:43.376Z,35
2017-03-17T06:01:23.829Z,35
2017-03-17T06:02:04.277Z,35
2017-03-17T06:02:44.775Z,35
2017-03-17T06:03:25.310Z,35
2017-03-17T06:04:05.756Z,40
2017-03-17T06:04:46.252Z,40
2017-03-17T06:05:26.748Z,40
2017-03-17T06:06:07.274Z,40
2017-03-17T06:06:47.787Z,40
2017-03-17T06:07:28.306Z,40
2017-03-17T06:08:08.814Z,45
2017-03-17T06:08:49.311Z,40
2017-03-17T06:09:29.835Z,40
2017-03-17T06:10:10.286Z,45
2017-03-17T06:10:50.759Z,45
2017-03-17T06:11:31.295Z,45
2017-03-17T06:12:11.794Z,50
2017-03-17T06:12:52.333Z,50
2017-03-17T06:13:32.821Z,50
2017-03-17T06:14:13.319Z,50
2017-03-17T06:14:53.793Z,50
2017-03-17T06:15:34.272Z,55
2017-03-17T06:16:14.789Z,55
2017-03-17T06:16:55.361Z,55
2017-03-17T06:17:35.930Z,55
2017-03-17T06:18:16.816Z,55
2017-03-17T06:18:57.239Z,55
2017-03-17T06:19:37.778Z,55
2017-03-17T06:20:18.252Z,55
2017-03-17T06:20:58.727Z,60
2017-03-17T06:21:39.245Z,60
2017-03-17T06:22:19.746Z,65
2017-03-17T06:23:00.202Z,65
2017-03-17T06:23:40.691Z,65
2017-03-17T06:24:21.181Z,65
2017-03-17T06:25:01.689Z,65
2017-03-17T06:25:42.196Z,65
2017-03-17T06:26:22.707Z,65
2017-03-17T06:27:03.234Z,65
2017-03-17T06:27:43.754Z,70
2017-03-17T06:28:24.221Z,70
2017-03-17T06:29:04.706Z,70
2017-03-17T06:29:45.230Z,70
2017-03-17T06:30:25.687Z,70
2017-03-17T06:31:06.191Z,70
2017-03-17T06:31:46.735Z,70
2017-03-17T06:32:27.241Z,75
2017-03-17T06:33:07.706Z,75
2017-03-17T06:33:48.355Z,75
2017-03-17T06:34:28.821Z,75
2017-03-17T06:35:09.295Z,75
2017-03-17T06:35:49.841Z,75
2017-03-17T06:36:30.328Z,75
2017-03-17T06:37:10.839Z,80
2017-03-17T06:37:51.331Z,80
2017-03-17T06:38:31.828Z,80
2017-03-17T06:39:12.336Z,80
2017-03-17T06:39:52.824Z,80
2017-03-17T06:40:33.396Z,80
2017-03-17T06:41:13.914Z,80
2017-03-17T06:41:54.394Z,80
2017-03-17T06:42:34.949Z,85
2017-03-17T06:43:15.476Z,85
2017-03-17T06:43:56.705Z,85
2017-03-17T06:44:37.207Z,85
2017-03-17T06:45:17.662Z,85
2017-03-17T06:45:58.193Z,85
2017-03-17T06:46:38.696Z,85
2017-03-17T06:47:19.236Z,85
2017-03-17T06:48:00.048Z,85
2017-03-17T06:48:40.655Z,85
2017-03-17T06:49:21.142Z,85
2017-03-17T06:50:01.614Z,85
2017-03-17T06:50:42.125Z,85
2017-03-17T06:51:22.618Z,85
2017-03-17T06:52:03.117Z,85
2017-03-17T06:52:43.639Z,85
2017-03-17T06:53:24.060Z,90
2017-03-17T06:54:04.575Z,85
2017-03-17T06:54:45.068Z,90
2017-03-17T06:55:25.560Z,90
2017-03-17T06:56:06.047Z,90
2017-03-17T06:56:46.561Z,90
2017-03-17T06:57:27.028Z,90
2017-03-17T06:58:07.579Z,95
2017-03-17T06:58:48.176Z,95
2017-03-17T06:59:28.641Z,95
2017-03-17T07:00:09.194Z,105
2017-03-17T07:00:49.700Z,110
2017-03-17T07:01:30.163Z,120
2017-03-17T07:02:10.710Z,115
2017-03-17T07:02:51.170Z,120
2017-03-17T07:03:31.631Z,120
2017-03-17T07:04:12.148Z,120
2017-03-17T07:04:52.615Z,125
2017-03-17T07:05:33.156Z,125
2017-03-17T07:06:13.665Z,125
2017-03-17T07:06:54.148Z,125
2017-03-17T07:07:34.668Z,130
2017-03-17T07:08:15.126Z,130
2017-03-17T07:08:55.657Z,130
2017-03-17T07:09:36.188Z,130
2017-03-17T07:10:16.654Z,130
2017-03-17T07:10:57.136Z,130
2017-03-17T07:11:37.622Z,130
2017-03-17T07:12:18.162Z,130
2017-03-17T07:12:58.597Z,130
2017-03-17T07:13:39.148Z,130
2017-03-17T07:14:19.617Z,130
2017-03-17T07:15:00.158Z,135
2017-03-17T07:15:40.626Z,130
2017-03-17T07:16:21.136Z,130
2017-03-17T07:17:01.819Z,130
2017-03-17T07:17:42.308Z,130
2017-03-17T07:18:22.908Z,130
2017-03-17T07:19:03.397Z,130
2017-03-17T07:19:44.948Z,135
2017-03-17T07:20:27.265Z,130
2017-03-17T07:21:08.327Z,130
2017-03-17T07:21:48.808Z,130
2017-03-17T07:22:29.322Z,130
2017-03-17T07:23:10.159Z,130
2017-03-17T07:23:50.611Z,130
2017-03-17T07:24:31.358Z,130
2017-03-17T07:25:12.895Z,130
2017-03-17T07:25:53.514Z,130
2017-03-17T07:26:33.915Z,130
2017-03-17T07:27:14.419Z,130
2017-03-17T07:27:54.893Z,130
2017-03-17T07:28:35.388Z,135
2017-03-17T07:29:15.905Z,135
2017-03-17T07:31:46.676Z,135
2017-03-17T07:32:26.803Z,135
2017-03-17T07:33:09.555Z,135
2017-03-17T07:33:49.588Z,135
2017-03-17T07:34:30.075Z,135
2017-03-17T07:35:10.585Z,135
2017-03-17T07:35:51.047Z,135
2017-03-17T07:36:31.553Z,130
2017-03-17T07:37:12.055Z,130
2017-03-17T07:37:52.570Z,125
2017-03-17T07:38:33.104Z,120
2017-03-17T07:39:13.558Z,115
2017-03-17T07:39:54.033Z,115
2017-03-17T07:40:34.535Z,120
2017-03-17T07:41:15.108Z,125
2017-03-17T07:41:55.563Z,125
2017-03-17T07:42:36.042Z,125
2017-03-17T07:43:18.433Z,125
2017-03-17T07:43:58.961Z,125
2017-03-17T07:44:39.458Z,125
2017-03-17T07:45:19.930Z,125
2017-03-17T07:46:00.420Z,125
2017-03-17T07:46:40.946Z,125
2017-03-17T07:47:21.401Z,125
2017-03-17T07:48:01.907Z,125
2017-03-17T07:48:42.387Z,125
2017-03-17T07:49:22.934Z,125
2017-03-17T07:50:03.451Z,125
2017-03-17T07:50:43.967Z,125
2017-03-17T07:51:24.569Z,125
2017-03-17T07:52:05.055Z,125
2017-03-17T07:52:45.566Z,125
2017-03-17T07:53:26.093Z,125
2017-03-17T07:54:06.657Z,125
2017-03-17T07:54:47.139Z,125
2017-03-17T07:55:27.709Z,125
2017-03-17T07:56:08.234Z,125
2017-03-17T07:56:48.799Z,125
2017-03-17T07:57:29.287Z,125
2017-03-17T07:58:09.801Z,125
2017-03-17T07:58:50.301Z,125
2017-03-17T07:59:30.764Z,125
2017-03-17T08:00:11.242Z,130
2017-03-17T08:00:51.813Z,125
2017-03-17T08:01:32.327Z,125
2017-03-17T08:02:12.795Z,125
2017-03-17T08:02:53.317Z,125
2017-03-17T08:03:33.856Z,125
2017-03-17T08:04:14.352Z,125
2017-03-17T08:04:54.880Z,125
2017-03-17T08:05:35.363Z,125
2017-03-17T08:06:15.900Z,120
2017-03-17T08:06:56.478Z,120
2017-03-17T08:07:36.952Z,125
2017-03-17T08:08:18.471Z,125
2017-03-17T08:08:59.006Z,125
2017-03-17T08:09:39.489Z,125
2017-03-17T08:10:20.005Z,125
2017-03-17T08:11:00.533Z,125
2017-03-17T08:11:41.021Z,125
2017-03-17T08:12:21.545Z,125
2017-03-17T08:13:02.040Z,125
2017-03-17T08:13:42.575Z,125
2017-03-17T08:14:23.100Z,125
2017-03-17T08:15:03.743Z,130
2017-03-17T08:15:44.267Z,130
2017-03-17T08:16:24.781Z,130
2017-03-17T08:17:05.301Z,130
2017-03-17T08:17:45.774Z,130
2017-03-17T08:18:26.291Z,130
2017-03-17T08:19:06.797Z,130
2017-03-17T08:19:47.352Z,130
2017-03-17T08:20:27.831Z,130
2017-03-17T08:21:08.386Z,130
2017-03-17T08:21:48.834Z,130
2017-03-17T08:22:29.338Z,130
2017-03-17T08:23:09.842Z,130
2017-03-17T08:23:50.424Z,130
2017-03-17T08:24:30.874Z,130
2017-03-17T08:25:11.379Z,125
2017-03-17T08:25:51.885Z,125
2017-03-17T08:26:32.375Z,125
2017-03-17T08:27:12.828Z,125
2017-03-17T08:27:53.363Z,125
2017-03-17T08:28:33.847Z,125
2017-03-17T08:29:14.325Z,125
2017-03-17T08:29:54.808Z,125
2017-03-17T08:30:35.313Z,125
2017-03-17T08:31:15.845Z,125
2017-03-17T08:31:56.346Z,125
2017-03-17T08:32:36.867Z,125
2017-03-17T08:33:17.356Z,125
2017-03-17T08:33:57.866Z,125
2017-03-17T08:34:38.368Z,125
2017-03-17T08:35:18.934Z,125
2017-03-17T08:35:59.404Z,125
2017-03-17T08:36:39.914Z,125
2017-03-17T08:37:20.369Z,125
2017-03-17T08:38:00.904Z,120
2017-03-17T08:38:41.433Z,125
2017-03-17T08:39:21.882Z,125
2017-03-17T08:40:02.377Z,125
2017-03-17T08:40:42.899Z,125
2017-03-17T08:41:23.370Z,125
2017-03-17T08:42:03.878Z,125
2017-03-17T08:42:44.509Z,125
2017-03-17T08:43:25.012Z,125
2017-03-17T08:44:05.510Z,125
2017-03-17T08:44:46.030Z,125
2017-03-17T08:45:26.540Z,130
2017-03-17T08:46:06.987Z,130
2017-03-17T08:46:47.462Z,130
2017-03-17T08:47:27.995Z,135
2017-03-17T08:48:08.503Z,135
2017-03-17T08:48:48.970Z,135
2017-03-17T08:49:29.481Z,135
2017-03-17T08:50:10.007Z,135
2017-03-17T08:50:50.511Z,135
2017-03-17T08:51:31.023Z,140
2017-03-17T08:52:11.489Z,140
2017-03-17T08:52:52.081Z,145
2017-03-17T08:53:32.577Z,140
2017-03-17T08:54:13.121Z,140
2017-03-17T08:54:53.603Z,140
2017-03-17T08:55:34.106Z,140
2017-03-17T08:56:14.577Z,140
2017-03-17T08:56:55.123Z,140
2017-03-17T08:57:35.665Z,140
2017-03-17T08:58:16.119Z,140
2017-03-17T08:58:56.634Z,140
2017-03-17T08:59:37.305Z,135
2017-03-17T09:00:18.191Z,135
2017-03-17T09:00:58.648Z,135
2017-03-17T09:01:39.857Z,130
2017-03-17T09:02:20.745Z,130
2017-03-17T09:03:01.006Z,130
2017-03-17T09:03:41.764Z,130
2017-03-17T09:04:22.290Z,125
2017-03-17T09:05:02.750Z,125
2017-03-17T09:05:43.268Z,120
2017-03-17T09:06:23.750Z,120
2017-03-17T09:07:04.265Z,115
2017-03-17T09:07:44.778Z,120
2017-03-17T09:08:25.315Z,125
2017-03-17T09:09:05.776Z,125
2017-03-17T09:09:46.412Z,130
2017-03-17T09:10:27.002Z,130
2017-03-17T09:11:07.518Z,130
2017-03-17T09:11:48.060Z,130
2017-03-17T09:12:28.505Z,130
2017-03-17T09:13:09.068Z,135
2017-03-17T09:13:49.579Z,135
2017-03-17T09:14:30.342Z,135
2017-03-17T09:15:10.844Z,135
2017-03-17T09:15:51.345Z,140
2017-03-17T09:16:31.888Z,145
2017-03-17T09:17:12.368Z,150
2017-03-17T09:17:52.907Z,150
2017-03-17T09:18:33.393Z,150
2017-03-17T09:19:13.910Z,155
2017-03-17T09:19:54.385Z,155
2017-03-17T09:20:34.941Z,155
2017-03-17T09:21:15.449Z,160
2017-03-17T09:21:55.931Z,160
2017-03-17T09:22:36.483Z,160
2017-03-17T09:23:17.002Z,165
2017-03-17T09:23:57.490Z,170
2017-03-17T09:24:38.038Z,170
2017-03-17T09:25:18.546Z,180
2017-03-17T09:25:59.044Z,185
2017-03-17T09:26:39.583Z,190
2017-03-17T09:27:20.054Z,190
2017-03-17T09:28:00.580Z,195
2017-03-17T09:28:41.032Z,195
2017-03-17T09:29:21.566Z,205
2017-03-17T09:30:02.061Z,205
2017-03-17T09:30:42.566Z,215
2017-03-17T09:31:23.123Z,220
2017-03-17T09:32:03.609Z,220
2017-03-17T09:32:44.096Z,225
2017-03-17T09:33:24.542Z,220
2017-03-17T09:34:05.053Z,220
2017-03-17T09:34:45.516Z,215
2017-03-17T09:35:26.057Z,215
2017-03-17T09:36:06.643Z,215
2017-03-17T09:36:47.120Z,210
2017-03-17T09:37:27.677Z,205
2017-03-17T09:38:08.127Z,195
2017-03-17T09:38:48.634Z,195
2017-03-17T09:39:29.190Z,190
2017-03-17T09:40:09.652Z,185
2017-03-17T09:40:50.145Z,185
2017-03-17T09:41:30.651Z,185
2017-03-17T09:42:11.168Z,185
2017-03-17T09:42:51.677Z,185
2017-03-17T09:43:32.248Z,180
2017-03-17T09:44:12.687Z,170
2017-03-17T09:44:53.181Z,170
2017-03-17T09:45:33.699Z,165
2017-03-17T09:46:14.219Z,165
2017-03-17T09:46:54.744Z,160